createdAt,value
2018-12-08T00:00:06.393Z,2.90
2018-12-08T00:02:41.182Z,2.90
2018-12-08T00:05:14.163Z,2.80
2018-12-08T00:07:50.295Z,2.80
2018-12-08T00:10:23.288Z,2.70
2018-12-08T00:12:55.267Z,2.70
2018-12-08T00:15:31.130Z,2.70
2018-12-08T00:18:03.259Z,2.60
2018-12-08T00:20:38.204Z,2.70
2018-12-08T00:23:13.679Z,2.70
2018-12-08T00:25:49.414Z,2.70
2018-12-08T00:28:24.334Z,2.70
2018-12-08T00:31:11.987Z,2.70
2018-12-08T00:33:47.305Z,2.70
2018-12-08T00:36:24.480Z,2.70
2018-12-08T00:38:56.683Z,2.70
2018-12-08T00:44:29.830Z,2.70
2018-12-08T00:47:01.907Z,2.80
2018-12-08T00:49:34.192Z,2.80
2018-12-08T00:52:09.991Z,2.80
2018-12-08T00:54:45.381Z,2.70
2018-12-08T00:57:17.735Z,2.70
2018-12-08T00:59:52.578Z,2.70
2018-12-08T01:02:27.367Z,2.70
2018-12-08T01:05:00.910Z,2.70
2018-12-08T01:07:36.015Z,2.80
2018-12-08T01:10:10.687Z,2.70
2018-12-08T01:12:43.523Z,2.70
2018-12-08T01:15:18.530Z,2.70
2018-12-08T01:17:53.381Z,2.80
2018-12-08T01:20:26.208Z,2.80
2018-12-08T01:23:01.362Z,2.80
2018-12-08T01:25:36.433Z,2.80
2018-12-08T01:28:15.368Z,2.80
2018-12-08T01:30:47.820Z,2.90
2018-12-08T01:33:23.560Z,3.00
2018-12-08T01:35:56.084Z,2.90
2018-12-08T01:38:28.152Z,2.90
2018-12-08T01:41:00.559Z,2.90
2018-12-08T01:46:51.306Z,2.80
2018-12-08T01:52:27.602Z,2.80
2018-12-08T01:54:59.733Z,2.80
2018-12-08T01:57:31.980Z,2.80
2018-12-08T02:00:07.668Z,2.80
2018-12-08T02:02:44.901Z,2.80
2018-12-08T02:05:17.972Z,2.80
2018-12-08T02:07:51.812Z,2.80
2018-12-08T02:10:27.483Z,2.80
2018-12-08T02:13:03.172Z,2.80
2018-12-08T02:15:46.075Z,2.80
2018-12-08T02:18:17.916Z,2.80
2018-12-08T02:20:53.596Z,2.80
2018-12-08T02:23:30.631Z,2.70
2018-12-08T02:26:03.055Z,2.70
2018-12-08T02:28:39.299Z,2.80
2018-12-08T02:31:11.522Z,2.70
2018-12-08T02:33:46.369Z,2.70
2018-12-08T02:36:21.489Z,2.80
2018-12-08T02:38:53.834Z,2.80
2018-12-08T02:41:28.682Z,2.80
2018-12-08T02:44:04.682Z,2.80
2018-12-08T02:46:43.028Z,2.80
2018-12-08T02:49:15.555Z,2.80
2018-12-08T02:51:54.945Z,2.80
2018-12-08T02:54:27.614Z,2.80
2018-12-08T02:56:59.600Z,2.80
2018-12-08T02:59:32.221Z,2.80
2018-12-08T03:02:07.735Z,2.80
2018-12-08T03:04:43.061Z,2.80
2018-12-08T03:07:15.085Z,2.80
2018-12-08T03:09:51.010Z,2.80
2018-12-08T03:12:23.295Z,2.80
2018-12-08T03:14:56.362Z,2.80
2018-12-08T03:17:31.530Z,2.90
2018-12-08T03:20:07.161Z,2.90
2018-12-08T03:22:41.830Z,2.90
2018-12-08T03:25:14.442Z,2.90
2018-12-08T03:38:07.484Z,2.90
2018-12-08T03:40:39.595Z,2.90
2018-12-08T03:43:14.455Z,2.90
2018-12-08T03:45:51.589Z,2.90
2018-12-08T03:48:27.090Z,2.90
2018-12-08T03:51:02.662Z,2.90
2018-12-08T03:53:38.565Z,2.90
2018-12-08T03:56:11.137Z,2.90
2018-12-08T03:58:45.738Z,2.90
2018-12-08T04:01:22.015Z,2.90
2018-12-08T04:03:55.604Z,2.80
2018-12-08T04:06:31.988Z,2.80
2018-12-08T04:09:06.905Z,2.80
2018-12-08T04:11:42.847Z,2.80
2018-12-08T04:14:18.411Z,2.80
2018-12-08T04:16:53.726Z,2.80
2018-12-08T04:19:37.533Z,2.80
2018-12-08T04:22:09.786Z,2.80
2018-12-08T04:24:42.442Z,2.80
2018-12-08T04:27:14.886Z,2.80
2018-12-08T04:29:53.369Z,2.80
2018-12-08T04:32:25.631Z,2.90
2018-12-08T04:35:00.333Z,2.80
2018-12-08T04:37:35.361Z,2.80
2018-12-08T04:40:11.135Z,2.80
2018-12-08T04:42:42.994Z,2.90
2018-12-08T04:45:26.624Z,2.80
2018-12-08T04:48:02.150Z,2.80
2018-12-08T04:50:34.300Z,2.80
2018-12-08T04:53:08.913Z,2.80
2018-12-08T04:55:47.024Z,2.90
2018-12-08T04:58:19.295Z,2.90
2018-12-08T05:00:51.671Z,2.80
2018-12-08T05:03:26.244Z,2.80
2018-12-08T05:05:59.001Z,2.80
2018-12-08T05:08:31.541Z,2.80
2018-12-08T05:11:03.764Z,2.80
2018-12-08T05:13:38.566Z,2.90
2018-12-08T05:16:11.131Z,2.80
2018-12-08T05:18:45.984Z,2.80
2018-12-08T05:21:18.878Z,2.80
2018-12-08T05:23:54.208Z,2.80
2018-12-08T05:26:26.775Z,2.80
2018-12-08T05:28:58.825Z,2.80
2018-12-08T05:31:30.901Z,2.80
2018-12-08T05:34:02.996Z,2.80
2018-12-08T05:36:36.061Z,2.80
2018-12-08T05:39:12.159Z,2.80
2018-12-08T05:41:44.831Z,2.80
2018-12-08T05:44:17.004Z,2.80
2018-12-08T05:46:55.678Z,2.80
2018-12-08T05:49:28.059Z,2.80
2018-12-08T05:52:03.080Z,2.80
2018-12-08T05:54:37.856Z,2.90
2018-12-08T05:57:14.507Z,2.90
2018-12-08T05:59:49.792Z,2.80
2018-12-08T06:02:22.887Z,2.90
2018-12-08T06:05:00.605Z,2.90
2018-12-08T06:07:33.354Z,2.90
2018-12-08T06:10:06.155Z,2.90
2018-12-08T06:12:41.646Z,2.90
2018-12-08T06:15:14.178Z,2.90
2018-12-08T06:17:49.050Z,2.90
2018-12-08T06:20:21.402Z,2.90
2018-12-08T06:22:54.224Z,2.90
2018-12-08T06:25:29.375Z,2.80
2018-12-08T06:28:08.063Z,2.80
2018-12-08T06:30:43.002Z,2.80
2018-12-08T06:33:18.098Z,2.80
2018-12-08T06:35:50.482Z,2.80
2018-12-08T06:38:27.758Z,2.80
2018-12-08T06:41:02.630Z,2.80
2018-12-08T06:43:37.913Z,2.80
2018-12-08T06:46:10.261Z,2.90
2018-12-08T06:48:45.184Z,3.00
2018-12-08T06:51:20.444Z,3.00
2018-12-08T06:53:55.816Z,2.90
2018-12-08T06:56:30.762Z,2.90
2018-12-08T06:59:06.158Z,2.90
2018-12-08T07:01:40.995Z,2.90
2018-12-08T07:04:16.304Z,3.00
2018-12-08T07:06:48.729Z,3.00
2018-12-08T07:09:20.772Z,3.00
2018-12-08T07:11:52.699Z,2.90
2018-12-08T07:14:24.710Z,2.90
2018-12-08T07:16:57.232Z,2.90
2018-12-08T07:19:30.936Z,2.90
2018-12-08T07:22:05.518Z,2.90
2018-12-08T07:24:38.018Z,2.90
2018-12-08T07:27:09.828Z,2.90
2018-12-08T07:29:48.476Z,2.80
2018-12-08T07:32:24.286Z,2.80
2018-12-08T07:34:58.573Z,2.80
2018-12-08T07:37:33.994Z,2.80
2018-12-08T07:40:07.847Z,2.90
2018-12-08T07:42:42.965Z,2.90
2018-12-08T07:45:19.061Z,3.00
2018-12-08T07:47:51.549Z,3.10
2018-12-08T07:50:28.344Z,3.10
2018-12-08T07:53:00.867Z,3.10
2018-12-08T07:55:33.294Z,3.10
2018-12-08T07:58:08.774Z,3.10
2018-12-08T08:00:44.912Z,3.10
2018-12-08T08:03:17.813Z,3.20
2018-12-08T08:05:55.038Z,3.20
2018-12-08T08:08:30.395Z,3.30
2018-12-08T08:11:03.013Z,3.30
2018-12-08T08:13:37.783Z,3.40
2018-12-08T08:16:10.346Z,3.40
2018-12-08T08:18:42.893Z,3.40
2018-12-08T08:21:22.251Z,3.40
2018-12-08T08:23:57.607Z,3.40
2018-12-08T08:26:36.631Z,3.40
2018-12-08T08:29:08.754Z,3.40
2018-12-08T08:31:50.252Z,3.50
2018-12-08T08:34:22.807Z,3.50
2018-12-08T08:36:58.167Z,3.50
2018-12-08T08:39:34.232Z,3.50
2018-12-08T08:42:09.330Z,3.50
2018-12-08T08:44:44.242Z,3.50
2018-12-08T08:47:19.339Z,3.60
2018-12-08T08:49:56.607Z,3.60
2018-12-08T08:52:31.309Z,3.60
2018-12-08T08:55:06.519Z,3.70
2018-12-08T08:57:42.732Z,3.70
2018-12-08T09:00:14.753Z,3.70
2018-12-08T09:02:47.001Z,3.70
2018-12-08T09:05:21.730Z,3.70
2018-12-08T09:07:56.919Z,3.70
2018-12-08T09:10:30.147Z,3.80
2018-12-08T09:13:05.416Z,3.90
2018-12-08T09:15:40.498Z,4.00
2018-12-08T09:18:12.982Z,4.10
2018-12-08T09:20:47.966Z,4.20
2018-12-08T09:23:22.838Z,4.30
2018-12-08T09:25:55.521Z,4.40
2018-12-08T09:28:28.740Z,4.40
2018-12-08T09:31:04.307Z,4.50
2018-12-08T09:33:36.876Z,4.50
2018-12-08T09:36:08.720Z,4.60
2018-12-08T09:38:44.355Z,4.60
2018-12-08T09:41:19.563Z,4.70
2018-12-08T09:43:55.206Z,4.90
2018-12-08T09:46:27.395Z,5.00
2018-12-08T09:49:04.504Z,5.00
2018-12-08T09:51:37.543Z,5.10
2018-12-08T09:54:09.499Z,5.00
2018-12-08T09:56:45.648Z,5.00
2018-12-08T09:59:17.898Z,5.00
2018-12-08T10:04:27.717Z,5.10
2018-12-08T10:07:02.797Z,5.20
2018-12-08T10:09:37.583Z,5.20
2018-12-08T10:12:16.500Z,5.40
2018-12-08T10:14:51.987Z,5.50
2018-12-08T10:17:27.512Z,5.70
2018-12-08T10:20:02.439Z,5.90
2018-12-08T10:22:37.290Z,6.20
2018-12-08T10:25:12.197Z,6.70
2018-12-08T10:27:47.278Z,7.10
2018-12-08T10:30:22.714Z,7.50
2018-12-08T10:32:57.608Z,7.90
2018-12-08T10:35:34.749Z,8.20
2018-12-08T10:38:09.898Z,8.60
2018-12-08T10:40:44.951Z,8.80
2018-12-08T10:43:19.942Z,9.00
2018-12-08T10:45:55.200Z,8.90
2018-12-08T10:48:27.578Z,8.90
2018-12-08T10:51:02.334Z,8.70
2018-12-08T10:53:37.302Z,8.50
2018-12-08T10:56:12.523Z,8.40
2018-12-08T10:58:47.500Z,8.30
2018-12-08T11:01:22.203Z,8.20
2018-12-08T11:03:58.162Z,8.10
2018-12-08T11:06:30.316Z,8.10
2018-12-08T11:09:08.847Z,8.10
2018-12-08T11:32:14.078Z,7.90
2018-12-08T11:34:49.459Z,8.00
2018-12-08T11:37:22.000Z,8.20
2018-12-08T11:39:56.982Z,8.20
2018-12-08T11:42:29.355Z,8.20
2018-12-08T11:45:05.755Z,8.20
2018-12-08T11:47:41.106Z,8.30
2018-12-08T11:50:16.679Z,8.30
2018-12-08T11:52:52.729Z,8.30
2018-12-08T11:55:30.353Z,8.40
2018-12-08T11:58:03.451Z,8.40
2018-12-08T12:00:39.001Z,8.40
2018-12-08T12:03:15.622Z,8.30
2018-12-08T12:05:47.851Z,8.30
2018-12-08T12:08:22.650Z,8.20
2018-12-08T12:10:57.365Z,8.20
2018-12-08T12:13:34.934Z,8.10
2018-12-08T12:16:10.270Z,8.10
2018-12-08T12:18:45.375Z,8.10
2018-12-08T12:21:17.645Z,8.10
2018-12-08T12:23:49.760Z,8.00
2018-12-08T12:26:24.890Z,7.90
2018-12-08T12:28:59.675Z,7.80
2018-12-08T12:31:34.375Z,7.90
2018-12-08T12:52:35.849Z,7.70
2018-12-08T12:55:10.967Z,7.70
2018-12-08T12:57:46.109Z,7.70
2018-12-08T13:00:22.468Z,7.70
2018-12-08T13:02:57.401Z,7.70
2018-12-08T13:05:32.452Z,7.70
2018-12-08T13:08:07.970Z,7.80
2018-12-08T13:10:40.982Z,7.80
2018-12-08T13:13:16.684Z,7.80
2018-12-08T13:15:49.113Z,7.90
2018-12-08T13:18:21.033Z,8.00
2018-12-08T13:20:55.663Z,7.90
2018-12-08T13:23:30.597Z,7.90
2018-12-08T13:26:07.818Z,7.80
2018-12-08T13:28:39.964Z,7.80
2018-12-08T13:31:15.034Z,7.70
2018-12-08T13:33:52.324Z,7.70
2018-12-08T13:36:27.225Z,7.70
2018-12-08T13:38:59.658Z,7.70
2018-12-08T13:41:34.304Z,7.60
2018-12-08T13:44:13.514Z,7.50
2018-12-08T13:46:48.982Z,7.50
2018-12-08T13:49:23.969Z,7.50
2018-12-08T13:51:56.316Z,7.50
2018-12-08T13:54:47.434Z,7.50
2018-12-08T13:57:22.789Z,7.40
2018-12-08T13:59:55.227Z,7.40
2018-12-08T14:02:29.858Z,7.40
2018-12-08T14:05:02.228Z,7.30
2018-12-08T14:07:34.266Z,7.30
2018-12-08T14:10:15.957Z,7.30
2018-12-08T14:12:48.443Z,7.30
2018-12-08T14:15:21.236Z,7.10
2018-12-08T14:17:56.700Z,7.10
2018-12-08T14:20:33.977Z,7.00
2018-12-08T14:23:06.422Z,7.00
2018-12-08T14:25:38.478Z,7.00
2018-12-08T14:28:11.507Z,7.00
2018-12-08T14:30:48.251Z,7.00
2018-12-08T14:33:23.716Z,6.80
2018-12-08T14:35:55.833Z,6.80
2018-12-08T14:38:31.299Z,6.70
2018-12-08T14:41:07.046Z,6.60
2018-12-08T14:43:45.603Z,6.60
2018-12-08T14:46:19.939Z,6.60
2018-12-08T14:48:54.772Z,6.50
2018-12-08T14:51:27.297Z,6.50
2018-12-08T14:53:59.945Z,6.50
2018-12-08T14:56:38.291Z,6.50
2018-12-08T15:04:19.974Z,6.40
2018-12-08T15:19:46.557Z,6.40
2018-12-08T15:22:18.694Z,6.40
2018-12-08T15:24:50.677Z,6.30
2018-12-08T15:32:34.815Z,6.30
2018-12-08T15:35:09.878Z,6.30
2018-12-08T15:37:45.261Z,6.20
2018-12-08T15:40:19.832Z,6.20
2018-12-08T15:42:55.170Z,6.20
2018-12-08T15:45:30.219Z,6.20
2018-12-08T15:48:05.319Z,6.20
2018-12-08T15:50:39.938Z,6.30
2018-12-08T15:53:12.533Z,6.20
2018-12-08T15:55:44.501Z,6.20
2018-12-08T15:58:19.230Z,6.20
2018-12-08T16:00:53.971Z,6.20
2018-12-08T16:03:29.078Z,6.20
2018-12-08T16:06:07.820Z,6.20
2018-12-08T16:08:42.829Z,6.20
2018-12-08T16:11:15.143Z,6.20
2018-12-08T16:13:47.128Z,6.20
2018-12-08T16:16:19.281Z,6.20
2018-12-08T16:18:58.384Z,6.10
2018-12-08T16:21:34.162Z,6.10
2018-12-08T16:24:10.357Z,6.10
2018-12-08T16:26:46.465Z,6.10
2018-12-08T16:29:21.727Z,6.10
2018-12-08T16:31:56.728Z,6.10
2018-12-08T16:34:31.589Z,6.10
2018-12-08T16:37:07.539Z,6.00
2018-12-08T16:39:43.641Z,6.00
2018-12-08T16:42:18.673Z,6.00
2018-12-08T16:44:53.846Z,6.00
2018-12-08T16:47:26.257Z,6.00
2018-12-08T16:49:58.232Z,6.00
2018-12-08T16:52:31.518Z,6.00
2018-12-08T16:55:06.962Z,5.90
2018-12-08T16:57:41.567Z,5.90
2018-12-08T17:00:16.595Z,5.90
2018-12-08T17:02:52.081Z,6.00
2018-12-08T17:05:24.837Z,5.90
2018-12-08T17:07:57.455Z,5.80
2018-12-08T17:10:29.607Z,5.90
2018-12-08T17:13:01.715Z,5.80
2018-12-08T17:15:33.719Z,5.80
2018-12-08T17:18:08.778Z,5.70
2018-12-08T17:20:40.939Z,5.70
2018-12-08T17:23:15.529Z,5.70
2018-12-08T17:25:52.988Z,5.80
2018-12-08T17:28:27.921Z,5.80
2018-12-08T17:31:02.923Z,5.70
2018-12-08T17:33:38.152Z,5.70
2018-12-08T17:36:13.592Z,5.80
2018-12-08T17:38:54.936Z,5.70
2018-12-08T17:41:30.325Z,5.70
2018-12-08T17:44:03.615Z,5.70
2018-12-08T17:46:39.690Z,5.70
2018-12-08T17:49:16.789Z,5.70
2018-12-08T17:51:51.346Z,5.70
2018-12-08T17:54:28.339Z,5.60
2018-12-08T17:57:01.518Z,5.60
2018-12-08T17:59:38.584Z,5.60
2018-12-08T18:02:12.453Z,5.60
2018-12-08T18:04:48.542Z,5.60
2018-12-08T18:07:23.905Z,5.60
2018-12-08T18:13:06.227Z,5.50
2018-12-08T18:15:40.954Z,5.50
2018-12-08T18:18:15.966Z,5.40
2018-12-08T18:20:52.883Z,5.40
2018-12-08T18:23:28.567Z,5.40
2018-12-08T18:26:03.632Z,5.40
2018-12-08T18:28:47.707Z,5.40
2018-12-08T18:31:29.399Z,5.30
2018-12-08T18:34:04.531Z,5.30
2018-12-08T18:36:37.265Z,5.30
2018-12-08T18:39:13.639Z,5.30
2018-12-08T18:41:48.712Z,5.30
2018-12-08T18:44:25.834Z,5.20
2018-12-08T18:47:01.130Z,5.20
2018-12-08T18:49:33.612Z,5.20
2018-12-08T18:52:08.540Z,5.10
2018-12-08T18:57:45.633Z,5.10
2018-12-08T19:00:20.608Z,5.10
2018-12-08T19:02:56.027Z,5.00
2018-12-08T19:05:34.622Z,5.10
2018-12-08T19:08:09.679Z,5.00
2018-12-08T19:10:42.604Z,5.00
2018-12-08T19:13:15.974Z,4.90
2018-12-08T19:15:51.784Z,4.90
2018-12-08T19:18:24.620Z,4.90
2018-12-08T19:21:00.065Z,5.00
2018-12-08T19:23:33.976Z,4.90
2018-12-08T19:26:06.384Z,5.00
2018-12-08T19:28:38.448Z,5.00
2018-12-08T19:31:10.457Z,5.00
2018-12-08T19:33:45.535Z,5.00
2018-12-08T19:36:20.385Z,5.00
2018-12-08T19:38:55.321Z,5.00
2018-12-08T19:41:27.691Z,5.10
2018-12-08T19:43:59.841Z,5.00
2018-12-08T19:46:34.783Z,5.00
2018-12-08T19:49:11.597Z,5.00
2018-12-08T19:51:44.446Z,5.00
2018-12-08T19:54:17.302Z,5.00
2018-12-08T19:56:49.154Z,4.90
2018-12-08T19:59:21.353Z,4.90
2018-12-08T20:01:53.526Z,5.00
2018-12-08T20:04:25.644Z,4.90
2018-12-08T20:06:58.638Z,4.90
2018-12-08T20:09:40.843Z,4.90
2018-12-08T20:12:18.556Z,4.90
2018-12-08T20:14:50.556Z,4.90
2018-12-08T20:17:23.297Z,4.90
2018-12-08T20:19:56.520Z,5.00
2018-12-08T20:22:28.678Z,4.90
2018-12-08T20:25:01.802Z,4.90
2018-12-08T20:27:35.124Z,4.90
2018-12-08T20:30:09.003Z,4.90
2018-12-08T20:32:41.833Z,5.00
2018-12-08T20:35:18.381Z,4.90
2018-12-08T20:37:52.950Z,5.00
2018-12-08T20:40:25.109Z,4.90
2018-12-08T20:42:57.371Z,4.90
2018-12-08T20:45:29.519Z,4.90
2018-12-08T20:48:02.882Z,4.90
2018-12-08T20:50:39.298Z,4.90
2018-12-08T20:53:12.183Z,5.00
2018-12-08T20:55:44.688Z,4.90
2018-12-08T20:58:17.329Z,4.90
2018-12-08T21:00:49.906Z,4.90
2018-12-08T21:03:24.790Z,4.90
2018-12-08T21:05:59.846Z,4.90
2018-12-08T21:08:34.764Z,4.90
2018-12-08T21:11:07.085Z,5.00
2018-12-08T21:13:38.943Z,5.00
2018-12-08T21:16:13.742Z,5.00
2018-12-08T21:18:47.191Z,5.00
2018-12-08T21:21:19.278Z,5.00
2018-12-08T21:23:51.285Z,4.90
2018-12-08T21:26:26.466Z,4.90
2018-12-08T21:28:58.365Z,4.90
2018-12-08T21:31:30.570Z,4.90
2018-12-08T21:34:05.327Z,4.90
2018-12-08T21:36:38.037Z,4.90
2018-12-08T21:39:10.046Z,4.80
2018-12-08T21:41:44.914Z,4.80
2018-12-08T21:44:20.199Z,4.80
2018-12-08T21:46:52.589Z,4.80
2018-12-08T21:49:24.801Z,4.80
2018-12-08T21:51:56.720Z,4.80
2018-12-08T21:54:28.655Z,4.80
2018-12-08T21:57:00.838Z,4.80
2018-12-08T21:59:33.537Z,4.70
2018-12-08T22:02:08.143Z,4.80
2018-12-08T22:04:43.081Z,4.70
2018-12-08T22:07:18.354Z,4.70
2018-12-08T22:09:50.583Z,4.70
2018-12-08T22:12:26.394Z,4.80
2018-12-08T22:14:58.884Z,4.80
2018-12-08T22:17:36.307Z,4.80
2018-12-08T22:20:08.595Z,4.70
2018-12-08T22:22:49.548Z,4.80
2018-12-08T22:25:21.809Z,4.70
2018-12-08T22:28:00.541Z,4.70
2018-12-08T22:30:35.672Z,4.70
2018-12-08T22:33:08.021Z,4.70
2018-12-08T22:35:43.566Z,4.70
2018-12-08T22:38:18.750Z,4.70
2018-12-08T22:40:50.785Z,4.70
2018-12-08T22:43:23.036Z,4.70
2018-12-08T22:45:57.738Z,4.70
2018-12-08T23:01:25.443Z,4.80
2018-12-08T23:04:00.576Z,4.70
2018-12-08T23:06:32.748Z,4.70
2018-12-08T23:09:06.330Z,4.70
2018-12-08T23:11:40.132Z,4.70
2018-12-08T23:14:14.981Z,4.70
2018-12-08T23:16:50.094Z,4.60
2018-12-08T23:19:25.309Z,4.60
2018-12-08T23:22:00.390Z,4.60
2018-12-08T23:24:32.499Z,4.50
2018-12-08T23:27:07.154Z,4.50
2018-12-08T23:29:42.294Z,4.50
2018-12-08T23:32:14.535Z,4.40
2018-12-08T23:34:47.690Z,4.40
2018-12-08T23:37:23.202Z,4.40
2018-12-08T23:40:05.094Z,4.40
2018-12-08T23:42:40.506Z,4.40
2018-12-08T23:45:15.856Z,4.40
2018-12-08T23:47:50.603Z,4.40
2018-12-08T23:50:22.539Z,4.40
2018-12-08T23:52:54.568Z,4.40
2018-12-08T23:55:26.867Z,4.40
2018-12-08T23:57:58.984Z,4.40
